Big Hole Natl Battlefield, Montana
Current Conditions -  °F | °C
As of 5:15 PM on Saturday 22 Nov 2014 (Local Time) from KSMN Reporting Station
Clear Clear  
Wind Chill: 37°   Ceiling: Unl
Heat Index: 37°   Visibility: 10mi
Dew Point: 21°   Wind: 0mph
Humidity: 52%   Direction: NA
Pressure: 29.7"   Gusts: NA
Location:  45.64°N, 113.65°W
Report Text: KSMN 230015Z AUTO 00000KT 10SM CLR 03/M06 A2970 RMK AO1
Loading
Personal Weather Stations






























Interactive Weather Map New forecast layout! Learn more

10-Day Weather Forecast

Advertisements
Track Severe Weather on mobile